Reading, Vermont
Current Conditions -  °F | °C
As of 4:54 PM on Saturday 25 Oct 2014 (Local Time) from KVSF Reporting Station
Overcast Overcast  
Wind Chill: 59°   Ceiling: 4700
Heat Index: 59°   Visibility: 10mi
Dew Point: 42°   Wind: 7mph
Humidity: 53%   Direction: NA
Pressure: 29.6"   Gusts: NA
Location:  43.49°N, 72.55°W
Report Text: KVSF 252054Z AUTO VRB06KT 10SM BKN047 OVC055 15/06 A2960 RMK AO2 SLP026 T01500056 55011
Loading
Personal Weather Stations






























Interactive Weather Map
Tropical Storm Tracking
New forecast layout! Learn more

10-Day Weather Forecast

Advertisements
Track Severe Weather on mobile